sensor_id;sensor_type;location;lat;lon;timestamp;temperature;humidity
76345;DHT22;65160;50.504;3.666;2023-03-20T00:00:07;4.79;89.96
76345;DHT22;65160;50.504;3.666;2023-03-20T00:02:35;4.76;90.20
76345;DHT22;65160;50.504;3.666;2023-03-20T00:05:14;4.73;89.72
76345;DHT22;65160;50.504;3.666;2023-03-20T00:07:40;4.62;89.72
76345;DHT22;65160;50.504;3.666;2023-03-20T00:10:07;4.62;90.07
76345;DHT22;65160;50.504;3.666;2023-03-20T00:12:33;4.56;89.75
76345;DHT22;65160;50.504;3.666;2023-03-20T00:15:01;4.58;89.84
76345;DHT22;65160;50.504;3.666;2023-03-20T00:17:28;4.54;89.72
76345;DHT22;65160;50.504;3.666;2023-03-20T00:19:53;4.51;89.83
76345;DHT22;65160;50.504;3.666;2023-03-20T00:22:19;4.42;89.85
76345;DHT22;65160;50.504;3.666;2023-03-20T00:24:45;4.46;90.23
76345;DHT22;65160;50.504;3.666;2023-03-20T00:27:14;4.58;90.47
76345;DHT22;65160;50.504;3.666;2023-03-20T00:29:40;4.52;90.53
76345;DHT22;65160;50.504;3.666;2023-03-20T00:32:13;4.42;90.18
76345;DHT22;65160;50.504;3.666;2023-03-20T00:34:39;4.41;90.01
76345;DHT22;65160;50.504;3.666;2023-03-20T00:37:05;4.41;90.24
76345;DHT22;65160;50.504;3.666;2023-03-20T00:39:31;4.37;90.61
76345;DHT22;65160;50.504;3.666;2023-03-20T00:42:01;4.38;90.86
76345;DHT22;65160;50.504;3.666;2023-03-20T00:44:46;4.34;90.57
76345;DHT22;65160;50.504;3.666;2023-03-20T00:47:18;4.25;90.60
76345;DHT22;65160;50.504;3.666;2023-03-20T00:49:46;4.27;90.52
76345;DHT22;65160;50.504;3.666;2023-03-20T00:52:13;4.27;90.36
76345;DHT22;65160;50.504;3.666;2023-03-20T00:54:39;4.22;90.32
76345;DHT22;65160;50.504;3.666;2023-03-20T00:57:12;4.33;90.88
76345;DHT22;65160;50.504;3.666;2023-03-20T01:00:06;4.28;90.63
76345;DHT22;65160;50.504;3.666;2023-03-20T01:02:33;4.31;90.95
76345;DHT22;65160;50.504;3.666;2023-03-20T01:04:59;4.40;91.38
76345;DHT22;65160;50.504;3.666;2023-03-20T01:07:24;4.44;91.52
76345;DHT22;65160;50.504;3.666;2023-03-20T01:09:50;4.42;91.51
76345;DHT22;65160;50.504;3.666;2023-03-20T01:12:16;4.33;91.22
76345;DHT22;65160;50.504;3.666;2023-03-20T01:14:43;4.24;91.07
76345;DHT22;65160;50.504;3.666;2023-03-20T01:17:19;4.13;91.04
76345;DHT22;65160;50.504;3.666;2023-03-20T01:19:45;4.07;91.15
76345;DHT22;65160;50.504;3.666;2023-03-20T01:22:12;4.03;91.10
76345;DHT22;65160;50.504;3.666;2023-03-20T01:24:39;4.06;91.33
76345;DHT22;65160;50.504;3.666;2023-03-20T01:27:14;4.10;91.56
76345;DHT22;65160;50.504;3.666;2023-03-20T01:29:40;4.04;91.05
76345;DHT22;65160;50.504;3.666;2023-03-20T01:32:15;3.97;91.32
76345;DHT22;65160;50.504;3.666;2023-03-20T01:34:40;4.00;91.05
76345;DHT22;65160;50.504;3.666;2023-03-20T01:37:11;3.94;90.87
76345;DHT22;65160;50.504;3.666;2023-03-20T01:39:38;3.91;90.73
76345;DHT22;65160;50.504;3.666;2023-03-20T01:42:04;3.87;91.12
76345;DHT22;65160;50.504;3.666;2023-03-20T01:44:32;3.87;90.86
76345;DHT22;65160;50.504;3.666;2023-03-20T01:47:00;3.93;91.28
76345;DHT22;65160;50.504;3.666;2023-03-20T01:51:53;3.91;91.66
76345;DHT22;65160;50.504;3.666;2023-03-20T01:56:55;4.01;91.90
76345;DHT22;65160;50.504;3.666;2023-03-20T01:59:45;3.97;91.92
76345;DHT22;65160;50.504;3.666;2023-03-20T02:02:18;3.98;91.90
76345;DHT22;65160;50.504;3.666;2023-03-20T02:04:49;3.94;91.96
76345;DHT22;65160;50.504;3.666;2023-03-20T02:07:17;3.97;92.03
76345;DHT22;65160;50.504;3.666;2023-03-20T02:09:46;4.03;92.04
76345;DHT22;65160;50.504;3.666;2023-03-20T02:12:12;3.91;91.91
76345;DHT22;65160;50.504;3.666;2023-03-20T02:14:38;3.93;92.09
76345;DHT22;65160;50.504;3.666;2023-03-20T02:17:05;3.96;92.32
76345;DHT22;65160;50.504;3.666;2023-03-20T02:19:57;3.94;92.22
76345;DHT22;65160;50.504;3.666;2023-03-20T02:22:36;3.98;92.35
76345;DHT22;65160;50.504;3.666;2023-03-20T02:38:35;3.90;92.04
76345;DHT22;65160;50.504;3.666;2023-03-20T02:44:25;3.94;92.25
76345;DHT22;65160;50.504;3.666;2023-03-20T02:47:06;3.94;92.19
76345;DHT22;65160;50.504;3.666;2023-03-20T02:49:59;3.96;92.29
76345;DHT22;65160;50.504;3.666;2023-03-20T02:55:41;3.97;92.02
76345;DHT22;65160;50.504;3.666;2023-03-20T02:58:11;3.91;92.11
76345;DHT22;65160;50.504;3.666;2023-03-20T03:00:48;3.94;92.02
76345;DHT22;65160;50.504;3.666;2023-03-20T03:04:15;3.94;92.09
76345;DHT22;65160;50.504;3.666;2023-03-20T03:06:28;4.00;91.90
76345;DHT22;65160;50.504;3.666;2023-03-20T03:09:10;3.94;91.89
76345;DHT22;65160;50.504;3.666;2023-03-20T03:11:42;4.01;91.77
76345;DHT22;65160;50.504;3.666;2023-03-20T03:14:38;4.00;91.67
76345;DHT22;65160;50.504;3.666;2023-03-20T03:17:03;3.93;91.87
76345;DHT22;65160;50.504;3.666;2023-03-20T03:19:31;3.96;92.03
76345;DHT22;65160;50.504;3.666;2023-03-20T03:21:58;3.96;92.05
76345;DHT22;65160;50.504;3.666;2023-03-20T03:24:33;4.03;92.11
76345;DHT22;65160;50.504;3.666;2023-03-20T03:27:09;3.98;92.15
76345;DHT22;65160;50.504;3.666;2023-03-20T03:29:37;4.00;92.15
76345;DHT22;65160;50.504;3.666;2023-03-20T03:32:05;4.11;91.99
76345;DHT22;65160;50.504;3.666;2023-03-20T03:34:32;4.17;91.62
76345;DHT22;65160;50.504;3.666;2023-03-20T03:37:09;4.10;91.65
76345;DHT22;65160;50.504;3.666;2023-03-20T03:39:43;4.16;91.71
76345;DHT22;65160;50.504;3.666;2023-03-20T03:42:29;4.17;91.61
76345;DHT22;65160;50.504;3.666;2023-03-20T03:45:18;4.17;91.67
76345;DHT22;65160;50.504;3.666;2023-03-20T03:47:53;4.21;91.65
76345;DHT22;65160;50.504;3.666;2023-03-20T03:50:28;4.22;91.54
76345;DHT22;65160;50.504;3.666;2023-03-20T03:52:58;4.24;91.56
76345;DHT22;65160;50.504;3.666;2023-03-20T03:55:27;4.28;91.50
76345;DHT22;65160;50.504;3.666;2023-03-20T03:58:48;4.24;91.48
76345;DHT22;65160;50.504;3.666;2023-03-20T04:00:49;4.30;91.35
76345;DHT22;65160;50.504;3.666;2023-03-20T04:03:18;4.25;91.48
76345;DHT22;65160;50.504;3.666;2023-03-20T04:05:45;4.22;91.47
76345;DHT22;65160;50.504;3.666;2023-03-20T04:08:13;4.21;91.60
76345;DHT22;65160;50.504;3.666;2023-03-20T04:10:40;4.25;91.62
76345;DHT22;65160;50.504;3.666;2023-03-20T04:13:06;4.25;91.73
76345;DHT22;65160;50.504;3.666;2023-03-20T04:15:31;4.25;91.63
76345;DHT22;65160;50.504;3.666;2023-03-20T04:17:57;4.25;91.61
76345;DHT22;65160;50.504;3.666;2023-03-20T04:20:23;4.24;91.49
76345;DHT22;65160;50.504;3.666;2023-03-20T04:22:48;4.25;91.48
76345;DHT22;65160;50.504;3.666;2023-03-20T04:25:20;4.28;91.43
76345;DHT22;65160;50.504;3.666;2023-03-20T04:27:46;4.27;91.24
76345;DHT22;65160;50.504;3.666;2023-03-20T04:30:12;4.25;91.21
76345;DHT22;65160;50.504;3.666;2023-03-20T04:32:38;4.24;91.36
76345;DHT22;65160;50.504;3.666;2023-03-20T04:35:04;4.24;91.14
76345;DHT22;65160;50.504;3.666;2023-03-20T04:37:30;4.25;91.03
76345;DHT22;65160;50.504;3.666;2023-03-20T04:39:55;4.20;91.07
76345;DHT22;65160;50.504;3.666;2023-03-20T04:42:21;4.18;91.16
76345;DHT22;65160;50.504;3.666;2023-03-20T04:44:46;4.11;91.09
76345;DHT22;65160;50.504;3.666;2023-03-20T04:47:12;4.17;91.02
76345;DHT22;65160;50.504;3.666;2023-03-20T04:49:37;4.18;91.05
76345;DHT22;65160;50.504;3.666;2023-03-20T04:52:03;4.21;91.02
76345;DHT22;65160;50.504;3.666;2023-03-20T04:54:29;4.21;90.95
76345;DHT22;65160;50.504;3.666;2023-03-20T04:56:55;4.22;90.75
76345;DHT22;65160;50.504;3.666;2023-03-20T04:59:20;4.27;90.79
76345;DHT22;65160;50.504;3.666;2023-03-20T05:01:46;4.27;90.85
76345;DHT22;65160;50.504;3.666;2023-03-20T05:04:11;4.28;90.63
76345;DHT22;65160;50.504;3.666;2023-03-20T05:06:37;4.31;90.49
76345;DHT22;65160;50.504;3.666;2023-03-20T05:09:03;4.30;90.55
76345;DHT22;65160;50.504;3.666;2023-03-20T05:11:29;4.35;90.74
76345;DHT22;65160;50.504;3.666;2023-03-20T05:13:54;4.40;90.74
76345;DHT22;65160;50.504;3.666;2023-03-20T05:16:20;4.40;90.66
76345;DHT22;65160;50.504;3.666;2023-03-20T05:18:46;4.37;90.69
76345;DHT22;65160;50.504;3.666;2023-03-20T05:21:11;4.40;90.62
76345;DHT22;65160;50.504;3.666;2023-03-20T05:23:37;4.44;90.35
76345;DHT22;65160;50.504;3.666;2023-03-20T05:26:02;4.45;90.24
76345;DHT22;65160;50.504;3.666;2023-03-20T05:28:28;4.48;90.23
76345;DHT22;65160;50.504;3.666;2023-03-20T05:30:54;4.42;90.23
76345;DHT22;65160;50.504;3.666;2023-03-20T05:33:20;4.40;90.31
76345;DHT22;65160;50.504;3.666;2023-03-20T05:35:45;4.40;90.33
76345;DHT22;65160;50.504;3.666;2023-03-20T05:38:11;4.44;90.19
76345;DHT22;65160;50.504;3.666;2023-03-20T05:40:37;4.42;90.25
76345;DHT22;65160;50.504;3.666;2023-03-20T05:43:02;4.46;90.29
76345;DHT22;65160;50.504;3.666;2023-03-20T05:45:28;4.46;90.35
76345;DHT22;65160;50.504;3.666;2023-03-20T05:47:53;4.52;90.38
76345;DHT22;65160;50.504;3.666;2023-03-20T05:50:19;4.49;90.32
76345;DHT22;65160;50.504;3.666;2023-03-20T05:52:46;4.55;90.03
76345;DHT22;65160;50.504;3.666;2023-03-20T05:55:12;4.54;90.12
76345;DHT22;65160;50.504;3.666;2023-03-20T05:57:38;4.58;89.87
76345;DHT22;65160;50.504;3.666;2023-03-20T06:00:04;4.66;89.96
76345;DHT22;65160;50.504;3.666;2023-03-20T06:02:30;4.68;89.92
76345;DHT22;65160;50.504;3.666;2023-03-20T06:04:56;4.73;89.62
76345;DHT22;65160;50.504;3.666;2023-03-20T06:07:22;4.76;89.46
76345;DHT22;65160;50.504;3.666;2023-03-20T06:09:47;4.75;89.52
76345;DHT22;65160;50.504;3.666;2023-03-20T06:12:13;4.83;89.54
76345;DHT22;65160;50.504;3.666;2023-03-20T06:14:38;4.86;89.63
76345;DHT22;65160;50.504;3.666;2023-03-20T06:17:04;4.89;89.32
76345;DHT22;65160;50.504;3.666;2023-03-20T06:19:30;4.94;89.16
76345;DHT22;65160;50.504;3.666;2023-03-20T06:21:55;4.96;88.83
76345;DHT22;65160;50.504;3.666;2023-03-20T06:24:21;4.97;88.87
76345;DHT22;65160;50.504;3.666;2023-03-20T06:26:46;4.93;88.85
76345;DHT22;65160;50.504;3.666;2023-03-20T06:29:12;4.93;88.69
76345;DHT22;65160;50.504;3.666;2023-03-20T06:31:37;4.91;88.89
76345;DHT22;65160;50.504;3.666;2023-03-20T06:34:03;4.96;88.38
76345;DHT22;65160;50.504;3.666;2023-03-20T06:36:29;4.94;88.15
76345;DHT22;65160;50.504;3.666;2023-03-20T06:38:55;4.99;88.25
76345;DHT22;65160;50.504;3.666;2023-03-20T06:41:21;4.96;88.17
76345;DHT22;65160;50.504;3.666;2023-03-20T06:43:46;5.03;88.11
76345;DHT22;65160;50.504;3.666;2023-03-20T06:46:12;5.09;87.96
76345;DHT22;65160;50.504;3.666;2023-03-20T06:48:37;5.18;88.31
76345;DHT22;65160;50.504;3.666;2023-03-20T06:51:03;5.18;87.86
76345;DHT22;65160;50.504;3.666;2023-03-20T06:53:29;5.24;87.47
76345;DHT22;65160;50.504;3.666;2023-03-20T06:55:54;5.28;87.39
76345;DHT22;65160;50.504;3.666;2023-03-20T06:58:20;5.26;87.52
76345;DHT22;65160;50.504;3.666;2023-03-20T07:00:45;5.34;87.16
76345;DHT22;65160;50.504;3.666;2023-03-20T07:03:11;5.35;87.19
76345;DHT22;65160;50.504;3.666;2023-03-20T07:05:37;5.42;87.46
76345;DHT22;65160;50.504;3.666;2023-03-20T07:08:03;5.39;87.32
76345;DHT22;65160;50.504;3.666;2023-03-20T07:10:29;5.45;86.92
76345;DHT22;65160;50.504;3.666;2023-03-20T07:12:56;5.47;86.21
76345;DHT22;65160;50.504;3.666;2023-03-20T07:15:22;5.45;86.39
76345;DHT22;65160;50.504;3.666;2023-03-20T07:17:47;5.48;86.59
76345;DHT22;65160;50.504;3.666;2023-03-20T07:20:13;5.59;85.90
76345;DHT22;65160;50.504;3.666;2023-03-20T07:22:39;5.63;86.09
76345;DHT22;65160;50.504;3.666;2023-03-20T07:25:09;5.69;85.83
76345;DHT22;65160;50.504;3.666;2023-03-20T07:27:35;5.76;86.14
76345;DHT22;65160;50.504;3.666;2023-03-20T07:30:01;5.80;85.98
76345;DHT22;65160;50.504;3.666;2023-03-20T07:32:26;5.82;85.55
76345;DHT22;65160;50.504;3.666;2023-03-20T07:34:52;5.87;85.07
76345;DHT22;65160;50.504;3.666;2023-03-20T07:37:18;5.86;85.44
76345;DHT22;65160;50.504;3.666;2023-03-20T07:39:43;5.92;84.64
76345;DHT22;65160;50.504;3.666;2023-03-20T07:42:09;5.87;84.49
76345;DHT22;65160;50.504;3.666;2023-03-20T07:44:35;5.86;84.51
76345;DHT22;65160;50.504;3.666;2023-03-20T07:47:00;6.00;84.49
76345;DHT22;65160;50.504;3.666;2023-03-20T07:49:26;6.10;84.82
76345;DHT22;65160;50.504;3.666;2023-03-20T07:51:52;6.14;84.02
76345;DHT22;65160;50.504;3.666;2023-03-20T07:54:19;6.25;83.71
76345;DHT22;65160;50.504;3.666;2023-03-20T07:56:45;6.37;83.38
76345;DHT22;65160;50.504;3.666;2023-03-20T07:59:11;6.37;83.26
76345;DHT22;65160;50.504;3.666;2023-03-20T08:01:37;6.38;83.02
76345;DHT22;65160;50.504;3.666;2023-03-20T08:04:02;6.49;83.32
76345;DHT22;65160;50.504;3.666;2023-03-20T08:06:28;6.45;82.52
76345;DHT22;65160;50.504;3.666;2023-03-20T08:08:54;6.51;82.32
76345;DHT22;65160;50.504;3.666;2023-03-20T08:11:19;6.55;82.19
76345;DHT22;65160;50.504;3.666;2023-03-20T08:13:45;6.56;82.08
76345;DHT22;65160;50.504;3.666;2023-03-20T08:16:11;6.61;82.61
76345;DHT22;65160;50.504;3.666;2023-03-20T08:18:37;6.66;82.32
76345;DHT22;65160;50.504;3.666;2023-03-20T08:21:03;6.69;81.64
76345;DHT22;65160;50.504;3.666;2023-03-20T08:23:28;6.80;81.78
76345;DHT22;65160;50.504;3.666;2023-03-20T08:25:54;6.86;81.26
76345;DHT22;65160;50.504;3.666;2023-03-20T08:28:20;6.92;80.80
76345;DHT22;65160;50.504;3.666;2023-03-20T08:30:46;7.04;80.47
76345;DHT22;65160;50.504;3.666;2023-03-20T08:33:13;7.08;80.55
76345;DHT22;65160;50.504;3.666;2023-03-20T08:35:39;7.16;80.01
76345;DHT22;65160;50.504;3.666;2023-03-20T08:38:05;7.20;80.08
76345;DHT22;65160;50.504;3.666;2023-03-20T08:40:30;7.25;79.87
76345;DHT22;65160;50.504;3.666;2023-03-20T08:42:56;7.25;79.73
76345;DHT22;65160;50.504;3.666;2023-03-20T08:45:22;7.25;79.50
76345;DHT22;65160;50.504;3.666;2023-03-20T08:47:50;7.45;79.69
76345;DHT22;65160;50.504;3.666;2023-03-20T08:50:16;7.68;78.60
76345;DHT22;65160;50.504;3.666;2023-03-20T08:52:42;7.90;77.79
76345;DHT22;65160;50.504;3.666;2023-03-20T08:55:12;8.14;77.42
76345;DHT22;65160;50.504;3.666;2023-03-20T08:57:38;8.34;75.67
76345;DHT22;65160;50.504;3.666;2023-03-20T09:00:05;8.66;76.40
76345;DHT22;65160;50.504;3.666;2023-03-20T09:02:31;8.87;74.65
76345;DHT22;65160;50.504;3.666;2023-03-20T09:04:57;8.84;74.74
76345;DHT22;65160;50.504;3.666;2023-03-20T09:07:22;8.84;74.22
76345;DHT22;65160;50.504;3.666;2023-03-20T09:09:48;8.72;74.22
76345;DHT22;65160;50.504;3.666;2023-03-20T09:12:13;8.86;75.55
76345;DHT22;65160;50.504;3.666;2023-03-20T09:14:39;8.94;74.74
76345;DHT22;65160;50.504;3.666;2023-03-20T09:17:05;8.84;72.52
76345;DHT22;65160;50.504;3.666;2023-03-20T09:19:30;8.89;73.60
76345;DHT22;65160;50.504;3.666;2023-03-20T09:21:56;8.92;72.54
76345;DHT22;65160;50.504;3.666;2023-03-20T09:24:21;9.14;73.69
76345;DHT22;65160;50.504;3.666;2023-03-20T09:26:47;9.11;71.96
76345;DHT22;65160;50.504;3.666;2023-03-20T09:29:13;9.06;72.07
76345;DHT22;65160;50.504;3.666;2023-03-20T09:31:38;9.32;72.49
76345;DHT22;65160;50.504;3.666;2023-03-20T09:34:04;9.55;70.89
76345;DHT22;65160;50.504;3.666;2023-03-20T09:36:29;9.85;69.67
76345;DHT22;65160;50.504;3.666;2023-03-20T09:38:55;9.76;69.69
76345;DHT22;65160;50.504;3.666;2023-03-20T09:41:23;9.68;71.13
76345;DHT22;65160;50.504;3.666;2023-03-20T09:47:06;9.37;71.04
76345;DHT22;65160;50.504;3.666;2023-03-20T09:49:43;9.28;70.78
76345;DHT22;65160;50.504;3.666;2023-03-20T09:52:31;9.27;71.58
76345;DHT22;65160;50.504;3.666;2023-03-20T09:55:03;9.31;70.95
76345;DHT22;65160;50.504;3.666;2023-03-20T09:57:39;9.34;71.76
76345;DHT22;65160;50.504;3.666;2023-03-20T10:00:12;9.42;71.02
76345;DHT22;65160;50.504;3.666;2023-03-20T10:02:48;9.45;71.20
76345;DHT22;65160;50.504;3.666;2023-03-20T10:05:26;9.41;71.10
76345;DHT22;65160;50.504;3.666;2023-03-20T10:07:55;9.41;71.17
76345;DHT22;65160;50.504;3.666;2023-03-20T10:10:34;9.37;71.39
76345;DHT22;65160;50.504;3.666;2023-03-20T10:19:36;9.34;71.56
76345;DHT22;65160;50.504;3.666;2023-03-20T10:22:24;9.28;71.33
76345;DHT22;65160;50.504;3.666;2023-03-20T10:25:21;9.27;71.66
76345;DHT22;65160;50.504;3.666;2023-03-20T10:27:59;9.21;71.82
76345;DHT22;65160;50.504;3.666;2023-03-20T10:36:15;9.19;72.38
76345;DHT22;65160;50.504;3.666;2023-03-20T10:41:28;9.32;72.72
76345;DHT22;65160;50.504;3.666;2023-03-20T10:43:56;9.51;72.34
76345;DHT22;65160;50.504;3.666;2023-03-20T10:46:27;9.52;72.17
76345;DHT22;65160;50.504;3.666;2023-03-20T10:48:58;9.58;72.14
76345;DHT22;65160;50.504;3.666;2023-03-20T10:51:33;9.65;72.12
76345;DHT22;65160;50.504;3.666;2023-03-20T10:54:03;9.81;71.94
76345;DHT22;65160;50.504;3.666;2023-03-20T10:59:03;9.92;72.91
76345;DHT22;65160;50.504;3.666;2023-03-20T11:01:30;10.02;73.46
76345;DHT22;65160;50.504;3.666;2023-03-20T11:03:56;10.02;72.63
76345;DHT22;65160;50.504;3.666;2023-03-20T11:06:27;10.02;73.48
76345;DHT22;65160;50.504;3.666;2023-03-20T11:09:11;10.17;73.72
76345;DHT22;65160;50.504;3.666;2023-03-20T11:11:45;10.18;73.19
76345;DHT22;65160;50.504;3.666;2023-03-20T11:14:19;10.29;73.65
76345;DHT22;65160;50.504;3.666;2023-03-20T11:16:53;10.18;73.59
76345;DHT22;65160;50.504;3.666;2023-03-20T11:19:21;10.25;73.28
76345;DHT22;65160;50.504;3.666;2023-03-20T11:21:55;10.30;73.11
76345;DHT22;65160;50.504;3.666;2023-03-20T11:24:41;10.36;73.67
76345;DHT22;65160;50.504;3.666;2023-03-20T11:27:19;10.51;73.63
76345;DHT22;65160;50.504;3.666;2023-03-20T11:29:49;10.48;72.96
76345;DHT22;65160;50.504;3.666;2023-03-20T11:32:26;10.45;73.43
76345;DHT22;65160;50.504;3.666;2023-03-20T11:34:52;10.55;73.16
76345;DHT22;65160;50.504;3.666;2023-03-20T11:37:27;10.62;73.20
76345;DHT22;65160;50.504;3.666;2023-03-20T11:42:37;11.02;72.33
76345;DHT22;65160;50.504;3.666;2023-03-20T11:45:15;11.06;71.86
76345;DHT22;65160;50.504;3.666;2023-03-20T11:47:41;11.23;71.76
76345;DHT22;65160;50.504;3.666;2023-03-20T11:52:57;11.12;72.00
76345;DHT22;65160;50.504;3.666;2023-03-20T11:55:31;10.96;72.21
76345;DHT22;65160;50.504;3.666;2023-03-20T11:58:02;10.85;73.38
76345;DHT22;65160;50.504;3.666;2023-03-20T12:00:37;10.85;72.50
76345;DHT22;65160;50.504;3.666;2023-03-20T12:03:31;10.95;72.50
76345;DHT22;65160;50.504;3.666;2023-03-20T12:06:00;10.88;72.67
76345;DHT22;65160;50.504;3.666;2023-03-20T12:08:27;10.99;72.76
76345;DHT22;65160;50.504;3.666;2023-03-20T12:11:05;10.89;73.23
76345;DHT22;65160;50.504;3.666;2023-03-20T12:13:35;10.93;73.38
76345;DHT22;65160;50.504;3.666;2023-03-20T12:16:10;10.95;73.12
76345;DHT22;65160;50.504;3.666;2023-03-20T12:18:49;11.09;72.80
76345;DHT22;65160;50.504;3.666;2023-03-20T12:27:05;11.48;71.56
76345;DHT22;65160;50.504;3.666;2023-03-20T12:29:50;11.58;72.28
76345;DHT22;65160;50.504;3.666;2023-03-20T12:32:39;11.45;71.87
76345;DHT22;65160;50.504;3.666;2023-03-20T12:35:27;11.50;71.99
76345;DHT22;65160;50.504;3.666;2023-03-20T12:37:54;11.72;72.60
76345;DHT22;65160;50.504;3.666;2023-03-20T12:40:33;11.90;70.36
76345;DHT22;65160;50.504;3.666;2023-03-20T12:43:04;11.88;70.76
76345;DHT22;65160;50.504;3.666;2023-03-20T12:45:40;11.83;70.54
76345;DHT22;65160;50.504;3.666;2023-03-20T12:48:31;11.64;70.67
76345;DHT22;65160;50.504;3.666;2023-03-20T12:51:49;11.85;71.18
76345;DHT22;65160;50.504;3.666;2023-03-20T12:56:55;11.82;70.57
76345;DHT22;65160;50.504;3.666;2023-03-20T13:01:57;11.79;71.58
76345;DHT22;65160;50.504;3.666;2023-03-20T13:05:21;11.83;71.16
76345;DHT22;65160;50.504;3.666;2023-03-20T13:10:35;11.96;71.60
76345;DHT22;65160;50.504;3.666;2023-03-20T13:13:42;12.22;70.05
76345;DHT22;65160;50.504;3.666;2023-03-20T13:19:34;11.88;71.89
76345;DHT22;65160;50.504;3.666;2023-03-20T13:24:47;11.77;72.13
76345;DHT22;65160;50.504;3.666;2023-03-20T13:38:45;11.54;73.35
76345;DHT22;65160;50.504;3.666;2023-03-20T13:41:12;11.58;73.21
76345;DHT22;65160;50.504;3.666;2023-03-20T13:43:48;11.50;73.13
76345;DHT22;65160;50.504;3.666;2023-03-20T13:46:24;11.58;73.55
76345;DHT22;65160;50.504;3.666;2023-03-20T13:48:52;11.51;73.50
76345;DHT22;65160;50.504;3.666;2023-03-20T13:51:43;11.61;73.56
76345;DHT22;65160;50.504;3.666;2023-03-20T13:54:26;11.62;73.50
76345;DHT22;65160;50.504;3.666;2023-03-20T14:05:30;11.64;73.89
76345;DHT22;65160;50.504;3.666;2023-03-20T14:10:54;11.57;73.99
76345;DHT22;65160;50.504;3.666;2023-03-20T14:13:21;11.48;74.21
76345;DHT22;65160;50.504;3.666;2023-03-20T14:15:52;11.47;74.09
76345;DHT22;65160;50.504;3.666;2023-03-20T14:18:21;11.55;74.41
76345;DHT22;65160;50.504;3.666;2023-03-20T14:20:53;11.64;73.95
76345;DHT22;65160;50.504;3.666;2023-03-20T14:23:35;11.67;74.03
76345;DHT22;65160;50.504;3.666;2023-03-20T14:26:30;11.75;73.41
76345;DHT22;65160;50.504;3.666;2023-03-20T14:29:19;11.81;73.77
76345;DHT22;65160;50.504;3.666;2023-03-20T14:31:48;11.90;73.54
76345;DHT22;65160;50.504;3.666;2023-03-20T14:34:19;11.99;72.94
76345;DHT22;65160;50.504;3.666;2023-03-20T14:50:21;11.81;74.67
76345;DHT22;65160;50.504;3.666;2023-03-20T14:53:12;11.85;73.41
76345;DHT22;65160;50.504;3.666;2023-03-20T14:56:07;11.86;73.39
76345;DHT22;65160;50.504;3.666;2023-03-20T15:01:04;11.82;73.61
76345;DHT22;65160;50.504;3.666;2023-03-20T15:03:30;11.75;73.58
76345;DHT22;65160;50.504;3.666;2023-03-20T15:05:58;11.64;74.20
76345;DHT22;65160;50.504;3.666;2023-03-20T15:08:28;11.58;74.26
76345;DHT22;65160;50.504;3.666;2023-03-20T15:10:57;11.57;74.53
76345;DHT22;65160;50.504;3.666;2023-03-20T15:13:25;11.68;74.37
76345;DHT22;65160;50.504;3.666;2023-03-20T15:15:58;11.78;74.06
76345;DHT22;65160;50.504;3.666;2023-03-20T15:18:26;11.78;74.21
76345;DHT22;65160;50.504;3.666;2023-03-20T15:20:55;11.72;74.00
76345;DHT22;65160;50.504;3.666;2023-03-20T15:23:21;11.71;74.08
76345;DHT22;65160;50.504;3.666;2023-03-20T15:25:48;11.83;74.19
76345;DHT22;65160;50.504;3.666;2023-03-20T15:28:25;12.05;74.00
76345;DHT22;65160;50.504;3.666;2023-03-20T15:30:55;11.96;74.08
76345;DHT22;65160;50.504;3.666;2023-03-20T15:33:23;11.78;74.38
76345;DHT22;65160;50.504;3.666;2023-03-20T15:35:49;11.74;74.42
76345;DHT22;65160;50.504;3.666;2023-03-20T15:38:17;11.72;74.41
76345;DHT22;65160;50.504;3.666;2023-03-20T15:40:42;11.89;74.63
76345;DHT22;65160;50.504;3.666;2023-03-20T15:43:21;11.85;73.60
76345;DHT22;65160;50.504;3.666;2023-03-20T15:45:47;11.85;73.65
76345;DHT22;65160;50.504;3.666;2023-03-20T15:48:16;11.78;73.47
76345;DHT22;65160;50.504;3.666;2023-03-20T15:50:44;11.81;73.68
76345;DHT22;65160;50.504;3.666;2023-03-20T15:53:19;11.77;73.79
76345;DHT22;65160;50.504;3.666;2023-03-20T15:58:30;11.82;73.63
76345;DHT22;65160;50.504;3.666;2023-03-20T16:00:58;11.83;73.78
76345;DHT22;65160;50.504;3.666;2023-03-20T16:03:25;11.89;73.17
76345;DHT22;65160;50.504;3.666;2023-03-20T16:05:52;11.96;73.50
76345;DHT22;65160;50.504;3.666;2023-03-20T16:08:30;11.96;73.28
76345;DHT22;65160;50.504;3.666;2023-03-20T16:11:13;12.02;73.62
76345;DHT22;65160;50.504;3.666;2023-03-20T16:13:42;12.05;73.64
76345;DHT22;65160;50.504;3.666;2023-03-20T16:16:13;12.00;73.38
76345;DHT22;65160;50.504;3.666;2023-03-20T16:18:40;11.98;73.29
76345;DHT22;65160;50.504;3.666;2023-03-20T16:21:09;12.06;73.41
76345;DHT22;65160;50.504;3.666;2023-03-20T16:23:38;12.23;72.65
76345;DHT22;65160;50.504;3.666;2023-03-20T16:26:07;12.78;70.47
76345;DHT22;65160;50.504;3.666;2023-03-20T16:28:37;13.22;68.96
76345;DHT22;65160;50.504;3.666;2023-03-20T16:31:12;13.44;67.79
76345;DHT22;65160;50.504;3.666;2023-03-20T16:33:40;13.47;67.24
76345;DHT22;65160;50.504;3.666;2023-03-20T16:36:06;13.36;67.39
76345;DHT22;65160;50.504;3.666;2023-03-20T16:38:35;12.81;69.09
76345;DHT22;65160;50.504;3.666;2023-03-20T16:41:37;12.46;70.00
76345;DHT22;65160;50.504;3.666;2023-03-20T16:44:17;12.27;70.99
76345;DHT22;65160;50.504;3.666;2023-03-20T16:51:56;11.85;72.40
76345;DHT22;65160;50.504;3.666;2023-03-20T16:54:25;11.88;72.82
76345;DHT22;65160;50.504;3.666;2023-03-20T16:56:54;11.81;72.51
76345;DHT22;65160;50.504;3.666;2023-03-20T16:59:23;11.77;72.75
76345;DHT22;65160;50.504;3.666;2023-03-20T17:01:50;11.68;73.24
76345;DHT22;65160;50.504;3.666;2023-03-20T17:04:21;11.71;73.47
76345;DHT22;65160;50.504;3.666;2023-03-20T17:07:04;11.67;73.77
76345;DHT22;65160;50.504;3.666;2023-03-20T17:09:30;11.60;73.66
76345;DHT22;65160;50.504;3.666;2023-03-20T17:12:12;11.51;73.85
76345;DHT22;65160;50.504;3.666;2023-03-20T17:14:38;11.51;74.53
76345;DHT22;65160;50.504;3.666;2023-03-20T17:17:18;11.51;73.97
76345;DHT22;65160;50.504;3.666;2023-03-20T17:19:46;11.54;74.30
76345;DHT22;65160;50.504;3.666;2023-03-20T17:22:20;11.50;74.47
76345;DHT22;65160;50.504;3.666;2023-03-20T17:24:46;11.47;74.62
76345;DHT22;65160;50.504;3.666;2023-03-20T17:27:13;11.48;74.50
76345;DHT22;65160;50.504;3.666;2023-03-20T17:29:39;11.43;74.31
76345;DHT22;65160;50.504;3.666;2023-03-20T17:32:14;11.43;74.57
76345;DHT22;65160;50.504;3.666;2023-03-20T17:34:40;11.43;74.77
76345;DHT22;65160;50.504;3.666;2023-03-20T17:37:11;11.45;74.95
76345;DHT22;65160;50.504;3.666;2023-03-20T17:39:37;11.40;74.94
76345;DHT22;65160;50.504;3.666;2023-03-20T17:42:17;11.44;74.60
76345;DHT22;65160;50.504;3.666;2023-03-20T17:44:43;11.43;75.02
76345;DHT22;65160;50.504;3.666;2023-03-20T17:47:20;11.35;75.31
76345;DHT22;65160;50.504;3.666;2023-03-20T17:49:46;11.38;74.93
76345;DHT22;65160;50.504;3.666;2023-03-20T17:52:18;11.33;75.63
76345;DHT22;65160;50.504;3.666;2023-03-20T17:54:44;11.27;75.59
76345;DHT22;65160;50.504;3.666;2023-03-20T17:57:23;11.23;75.36